Time;durP1;ratioP1;P1;durP2;ratioP2;P2;SDS_P1;SDS_P2;PMS_P1;PMS_P2;Temp;Humidity;BMP_temperature;BMP_pressure;BME280_temperature;BME280_humidity;BME280_pressure;Samples;Min_cycle;Max_cycle;Signal;HPM_P1;HPM_P2
2023/11/14 00:02:24;;;;;;;11.63;2.90;;;15.00;99.90;;;;;;5046883;28;21048;-73
2023/11/14 00:04:50;;;;;;;10.70;2.80;;;15.00;99.90;;;;;;5051143;28;20414;-73
2023/11/14 00:07:15;;;;;;;8.60;3.20;;;14.90;99.90;;;;;;5054215;28;20432;-72
2023/11/14 00:09:41;;;;;;;8.73;3.00;;;14.80;99.90;;;;;;5055109;28;20920;-72
2023/11/14 00:12:07;;;;;;;14.93;4.20;;;14.80;99.90;;;;;;5054230;28;20544;-72
2023/11/14 00:14:32;;;;;;;12.10;3.47;;;14.80;99.90;;;;;;5056432;28;20283;-72
2023/11/14 00:16:58;;;;;;;7.60;2.53;;;14.70;99.90;;;;;;5059344;28;20190;-72
2023/11/14 00:19:23;;;;;;;8.53;3.33;;;14.80;99.90;;;;;;5055872;28;20222;-70
2023/11/14 00:21:50;;;;;;;13.23;2.77;;;14.80;99.90;;;;;;5057148;28;20191;-72
2023/11/14 00:24:16;;;;;;;13.50;4.27;;;14.70;99.90;;;;;;5057823;28;20204;-72
2023/11/14 00:26:42;;;;;;;7.97;2.57;;;14.60;99.90;;;;;;5057221;28;20442;-72
2023/11/14 00:29:07;;;;;;;9.60;3.07;;;14.50;99.90;;;;;;5061000;28;20444;-72
2023/11/14 00:31:33;;;;;;;11.77;2.77;;;14.50;99.90;;;;;;5059387;28;20258;-72
2023/11/14 00:33:58;;;;;;;9.80;2.90;;;14.60;99.90;;;;;;5060020;28;20203;-72
2023/11/14 00:36:25;;;;;;;10.23;3.03;;;14.60;99.90;;;;;;5053484;28;20273;-72
2023/11/14 00:38:50;;;;;;;12.03;3.00;;;14.50;99.90;;;;;;5059660;28;20680;-72
2023/11/14 00:41:17;;;;;;;10.53;3.07;;;14.50;99.90;;;;;;5060155;28;20414;-73
2023/11/14 00:43:42;;;;;;;6.37;2.70;;;14.60;99.90;;;;;;5056964;28;20206;-72
2023/11/14 00:46:11;;;;;;;7.97;2.90;;;14.50;99.90;;;;;;5052403;28;22195;-73
2023/11/14 00:48:37;;;;;;;12.63;2.80;;;14.50;99.90;;;;;;5060766;28;20270;-73
2023/11/14 00:51:03;;;;;;;10.97;3.20;;;14.50;99.90;;;;;;5059251;28;20453;-73
2023/11/14 00:53:28;;;;;;;7.67;2.70;;;14.50;99.90;;;;;;5058558;28;20220;-72
2023/11/14 00:55:55;;;;;;;10.10;3.20;;;14.40;99.90;;;;;;5059135;28;20546;-72
2023/11/14 00:58:21;;;;;;;5.90;2.70;;;14.40;99.90;;;;;;5061987;28;20208;-72
2023/11/14 01:00:47;;;;;;;11.90;2.47;;;14.40;99.90;;;;;;5051336;28;20417;-72
2023/11/14 01:03:12;;;;;;;6.23;2.53;;;14.40;99.90;;;;;;5053339;28;20452;-72
2023/11/14 01:05:38;;;;;;;6.83;2.27;;;14.50;99.90;;;;;;5057871;28;20274;-72
2023/11/14 01:08:04;;;;;;;13.77;4.10;;;14.50;99.90;;;;;;5061087;28;20528;-72
2023/11/14 01:10:30;;;;;;;12.27;3.47;;;14.40;99.90;;;;;;5058539;28;20409;-73
2023/11/14 01:13:00;;;;;;;8.63;2.43;;;14.50;99.90;;;;;;5058985;28;21001;-73
2023/11/14 01:15:26;;;;;;;8.33;2.80;;;14.50;99.90;;;;;;5059035;28;20183;-73
2023/11/14 01:17:51;;;;;;;9.70;2.40;;;14.50;99.90;;;;;;5058812;28;20428;-72
2023/11/14 01:20:17;;;;;;;11.67;2.67;;;14.50;99.90;;;;;;5055387;28;20955;-73
2023/11/14 01:22:43;;;;;;;6.73;2.63;;;14.50;99.90;;;;;;5057293;28;20195;-72
2023/11/14 01:25:08;;;;;;;7.27;2.80;;;14.50;99.90;;;;;;5056482;28;20218;-72
2023/11/14 01:27:34;;;;;;;12.50;3.43;;;14.40;99.90;;;;;;5060171;28;20653;-72
2023/11/14 01:30:00;;;;;;;5.90;2.33;;;14.40;99.90;;;;;;5057915;28;20670;-72
2023/11/14 01:32:26;;;;;;;10.40;3.20;;;14.50;99.90;;;;;;5054334;28;20193;-72
2023/11/14 01:34:51;;;;;;;8.20;3.00;;;14.50;99.90;;;;;;5058104;28;20183;-72
2023/11/14 01:37:17;;;;;;;12.60;3.23;;;14.40;99.90;;;;;;5053103;28;20191;-72
2023/11/14 01:39:44;;;;;;;10.47;2.30;;;14.40;99.90;;;;;;5061170;28;20357;-73
2023/11/14 01:42:10;;;;;;;8.93;3.10;;;14.40;99.90;;;;;;5057728;28;20557;-73
2023/11/14 01:44:35;;;;;;;13.37;2.90;;;14.40;99.90;;;;;;5060833;28;20437;-72
2023/11/14 01:47:01;;;;;;;9.70;3.23;;;14.40;99.90;;;;;;5060785;28;20330;-73
2023/11/14 01:49:26;;;;;;;10.57;2.83;;;14.40;99.90;;;;;;5058811;28;20194;-72
2023/11/14 01:51:53;;;;;;;10.30;3.20;;;14.30;99.90;;;;;;5060070;28;20279;-73
2023/11/14 01:54:19;;;;;;;10.03;3.00;;;14.30;99.90;;;;;;5058240;28;20215;-72
2023/11/14 01:56:44;;;;;;;13.20;3.90;;;14.30;99.90;;;;;;5060268;28;20440;-73
2023/11/14 01:59:11;;;;;;;10.63;2.90;;;14.30;99.90;;;;;;5059505;28;20206;-73
2023/11/14 02:01:37;;;;;;;15.27;3.43;;;14.20;99.90;;;;;;5052915;28;20314;-73
2023/11/14 02:04:10;;;;;;;9.43;3.20;;;14.20;99.90;;;;;;5055385;28;20449;-72
2023/11/14 02:06:36;;;;;;;12.23;3.00;;;14.30;99.90;;;;;;5061642;28;20436;-72
2023/11/14 02:09:02;;;;;;;7.53;2.70;;;14.20;99.90;;;;;;5056132;28;20429;-72
2023/11/14 02:11:27;;;;;;;6.00;2.83;;;14.20;99.90;;;;;;5056287;28;20468;-72
2023/11/14 02:13:53;;;;;;;9.93;3.27;;;14.20;99.90;;;;;;5058097;28;20530;-73
2023/11/14 02:16:19;;;;;;;16.03;4.30;;;14.10;99.90;;;;;;5059488;28;20213;-73
2023/11/14 02:18:44;;;;;;;10.67;2.10;;;14.10;99.90;;;;;;5058340;28;20623;-73
2023/11/14 02:21:12;;;;;;;14.60;3.57;;;14.00;99.90;;;;;;5060908;28;20184;-72
2023/11/14 02:23:42;;;;;;;8.53;2.60;;;14.00;99.90;;;;;;5060608;28;20217;-73
2023/11/14 02:26:08;;;;;;;8.97;2.90;;;13.90;99.90;;;;;;5063761;28;20421;-73
2023/11/14 02:28:34;;;;;;;8.70;2.60;;;13.90;99.90;;;;;;5059532;28;20915;-72
2023/11/14 02:31:01;;;;;;;15.60;4.57;;;13.90;99.90;;;;;;5058995;28;20671;-72
2023/11/14 02:33:27;;;;;;;11.53;2.97;;;13.90;99.90;;;;;;5054327;28;20207;-73
2023/11/14 02:35:52;;;;;;;11.87;2.97;;;13.90;99.90;;;;;;5059270;28;20442;-72
2023/11/14 02:38:18;;;;;;;19.07;3.10;;;13.80;99.90;;;;;;5057776;28;20179;-73
2023/11/14 02:40:49;;;;;;;8.37;2.53;;;13.80;99.90;;;;;;5058754;28;20257;-72
2023/11/14 02:43:15;;;;;;;10.70;3.40;;;13.80;99.90;;;;;;5059805;28;20473;-73
2023/11/14 02:45:42;;;;;;;8.03;3.00;;;13.80;99.90;;;;;;5055581;28;20483;-73
2023/11/14 02:48:08;;;;;;;11.17;3.00;;;13.70;99.90;;;;;;5058818;28;20199;-73
2023/11/14 02:50:54;;;;;;;12.57;3.03;;;13.70;99.90;;;;;;5056121;28;20465;-73
2023/11/14 02:53:21;;;;;;;12.37;3.33;;;13.80;99.90;;;;;;5052879;28;20958;-73
2023/11/14 02:55:49;;;;;;;7.20;2.47;;;13.80;99.90;;;;;;5056327;28;20524;-73
2023/11/14 02:58:15;;;;;;;8.00;3.73;;;13.80;99.90;;;;;;5062049;28;20421;-73
2023/11/14 03:00:48;;;;;;;11.63;2.80;;;13.80;99.90;;;;;;5054598;28;20687;-72
2023/11/14 03:03:18;;;;;;;13.47;3.33;;;13.80;99.90;;;;;;5049755;28;20195;-73
2023/11/14 03:05:45;;;;;;;9.17;3.60;;;13.80;99.90;;;;;;5058923;28;20442;-72
2023/11/14 03:08:11;;;;;;;8.77;2.70;;;13.80;99.90;;;;;;5054574;28;20412;-72
2023/11/14 03:10:37;;;;;;;16.63;3.50;;;13.70;99.90;;;;;;5062341;28;20505;-72
2023/11/14 03:13:04;;;;;;;8.00;2.90;;;13.80;99.90;;;;;;5060503;28;20908;-73
2023/11/14 03:15:31;;;;;;;10.93;2.87;;;13.70;99.90;;;;;;5060915;28;20626;-72
2023/11/14 03:17:56;;;;;;;11.70;3.93;;;13.70;99.90;;;;;;5058341;28;20892;-72
2023/11/14 03:20:23;;;;;;;7.23;2.83;;;13.70;99.90;;;;;;5054851;28;20522;-72
2023/11/14 03:22:49;;;;;;;6.53;3.03;;;13.70;99.90;;;;;;5061660;28;20282;-72
2023/11/14 03:25:16;;;;;;;7.90;2.70;;;13.70;99.90;;;;;;5057622;28;20440;-72
2023/11/14 03:27:41;;;;;;;9.63;2.80;;;13.60;99.90;;;;;;5060927;28;20442;-72
2023/11/14 03:30:08;;;;;;;6.23;2.60;;;13.60;99.90;;;;;;5057915;28;20457;-72
2023/11/14 03:32:34;;;;;;;9.83;3.10;;;13.60;99.90;;;;;;5059297;28;20268;-72
2023/11/14 03:35:00;;;;;;;8.30;2.50;;;13.60;99.90;;;;;;5056293;28;20425;-72
2023/11/14 03:37:29;;;;;;;7.90;2.97;;;13.70;99.90;;;;;;5058627;28;20928;-72
2023/11/14 03:39:55;;;;;;;9.57;3.03;;;13.60;99.90;;;;;;5061639;28;20476;-72
2023/11/14 03:42:21;;;;;;;11.07;3.60;;;13.60;99.90;;;;;;5058567;28;20427;-72
2023/11/14 03:44:46;;;;;;;7.60;2.77;;;13.70;99.90;;;;;;5058335;28;20260;-72
2023/11/14 03:47:12;;;;;;;7.40;2.90;;;13.70;99.90;;;;;;5057161;28;20184;-72
2023/11/14 03:49:38;;;;;;;8.90;2.90;;;13.70;99.90;;;;;;5063320;28;20661;-72
2023/11/14 03:52:03;;;;;;;10.03;3.10;;;13.60;99.90;;;;;;5056720;28;20657;-73
2023/11/14 03:54:29;;;;;;;9.07;2.50;;;13.60;99.90;;;;;;5060364;28;20615;-72
2023/11/14 03:56:54;;;;;;;7.93;2.73;;;13.70;99.90;;;;;;5057363;28;20187;-72
2023/11/14 03:59:20;;;;;;;6.63;2.80;;;13.70;99.90;;;;;;5062895;28;20223;-72
2023/11/14 04:01:46;;;;;;;8.07;2.80;;;13.70;99.90;;;;;;5048495;28;20191;-72
2023/11/14 04:04:12;;;;;;;10.50;2.87;;;13.70;99.90;;;;;;5056656;28;20308;-72
2023/11/14 04:06:38;;;;;;;13.43;2.80;;;13.80;99.90;;;;;;5060506;28;20292;-72
2023/11/14 04:09:04;;;;;;;9.30;2.73;;;13.80;99.90;;;;;;5059530;28;20444;-72
2023/11/14 04:11:29;;;;;;;10.83;2.70;;;13.70;99.90;;;;;;5055852;28;20433;-72
2023/11/14 04:13:55;;;;;;;10.60;2.93;;;13.70;99.90;;;;;;5060308;28;20235;-72
2023/11/14 04:16:21;;;;;;;8.80;2.30;;;13.70;99.90;;;;;;5053501;28;20653;-72
2023/11/14 04:18:47;;;;;;;5.93;2.43;;;13.70;99.90;;;;;;5059063;28;20195;-72
2023/11/14 04:21:19;;;;;;;6.17;3.30;;;13.60;99.90;;;;;;5057231;28;20820;-72
2023/11/14 04:23:48;;;;;;;9.77;2.30;;;13.60;99.90;;;;;;5059907;28;20206;-72
2023/11/14 04:26:14;;;;;;;14.47;2.67;;;13.50;99.90;;;;;;5060483;28;20528;-71
2023/11/14 04:28:40;;;;;;;7.60;2.50;;;13.60;99.90;;;;;;5056011;28;20476;-72
2023/11/14 04:31:06;;;;;;;8.53;2.53;;;13.50;99.90;;;;;;5059666;28;20508;-72
2023/11/14 04:33:32;;;;;;;8.83;2.50;;;13.50;99.90;;;;;;5056090;28;20595;-72
2023/11/14 04:35:57;;;;;;;14.43;3.03;;;13.50;99.90;;;;;;5061905;28;20245;-73
2023/11/14 04:38:23;;;;;;;13.47;3.07;;;13.50;99.90;;;;;;5059961;28;20187;-72
2023/11/14 04:40:49;;;;;;;10.20;2.80;;;13.50;99.90;;;;;;5055951;28;20546;-72
2023/11/14 04:43:14;;;;;;;8.77;2.20;;;13.40;99.90;;;;;;5061447;28;20246;-72
2023/11/14 04:45:40;;;;;;;10.10;2.50;;;13.50;99.90;;;;;;5057573;28;20190;-72
2023/11/14 04:48:05;;;;;;;7.60;2.20;;;13.50;99.90;;;;;;5058101;28;20183;-72
2023/11/14 04:50:31;;;;;;;7.40;2.67;;;13.50;99.90;;;;;;5057088;28;20175;-72
2023/11/14 04:52:57;;;;;;;8.73;2.93;;;13.50;99.90;;;;;;5055553;28;20301;-72
2023/11/14 04:55:22;;;;;;;11.90;2.90;;;13.40;99.90;;;;;;5060843;28;20190;-72
2023/11/14 04:57:48;;;;;;;15.27;2.87;;;13.40;99.90;;;;;;5056607;28;20666;-72
2023/11/14 05:00:14;;;;;;;6.70;2.63;;;13.40;99.90;;;;;;5058597;28;20222;-72
2023/11/14 05:02:39;;;;;;;9.97;3.23;;;13.40;99.90;;;;;;5049787;28;20306;-72
2023/11/14 05:05:05;;;;;;;10.07;2.67;;;13.50;99.90;;;;;;5063606;28;20191;-72
2023/11/14 05:07:31;;;;;;;6.70;2.67;;;13.40;99.90;;;;;;5060100;28;20191;-72
2023/11/14 05:09:59;;;;;;;11.63;2.90;;;13.50;99.90;;;;;;5058221;28;20441;-73
2023/11/14 05:12:24;;;;;;;10.93;2.47;;;13.50;99.90;;;;;;5060333;28;20679;-73
2023/11/14 05:14:50;;;;;;;7.10;2.13;;;13.50;99.90;;;;;;5058473;28;20516;-73
2023/11/14 05:17:16;;;;;;;6.53;2.87;;;13.50;99.90;;;;;;5056120;28;20191;-73
2023/11/14 05:19:42;;;;;;;8.00;2.97;;;13.40;99.90;;;;;;5054710;28;20218;-73
2023/11/14 05:22:08;;;;;;;8.03;2.83;;;13.30;99.90;;;;;;5058919;28;20194;-73
2023/11/14 05:24:33;;;;;;;8.13;2.50;;;13.40;99.90;;;;;;5056017;28;20418;-73
2023/11/14 05:26:59;;;;;;;10.17;3.30;;;13.30;99.90;;;;;;5059164;28;20198;-73
2023/11/14 05:29:24;;;;;;;12.13;3.73;;;13.40;99.90;;;;;;5060172;28;20735;-73
2023/11/14 05:31:50;;;;;;;10.27;3.07;;;13.40;99.90;;;;;;5055780;28;20272;-73
2023/11/14 05:34:15;;;;;;;13.50;3.00;;;13.40;99.90;;;;;;5058608;28;20217;-73
2023/11/14 05:36:41;;;;;;;8.30;2.53;;;13.40;99.90;;;;;;5054387;28;20198;-72
2023/11/14 05:39:07;;;;;;;11.47;2.93;;;13.40;99.90;;;;;;5060171;28;20238;-72
2023/11/14 05:41:33;;;;;;;6.67;2.30;;;13.30;99.90;;;;;;5058180;28;20187;-72
2023/11/14 05:43:59;;;;;;;11.10;3.37;;;13.30;99.90;;;;;;5060051;28;20433;-72
2023/11/14 05:46:25;;;;;;;7.60;2.57;;;13.30;99.90;;;;;;5055963;28;20425;-72
2023/11/14 05:48:51;;;;;;;13.37;3.27;;;13.30;99.90;;;;;;5060056;28;20213;-72
2023/11/14 05:51:17;;;;;;;10.20;2.57;;;13.20;99.90;;;;;;5061158;28;20186;-72
2023/11/14 05:53:45;;;;;;;9.90;3.40;;;13.30;99.90;;;;;;5052619;28;20740;-72
2023/11/14 05:56:11;;;;;;;15.00;3.20;;;13.30;99.90;;;;;;5060250;28;20858;-72
2023/11/14 05:58:36;;;;;;;10.43;3.63;;;13.30;99.90;;;;;;5058926;28;20465;-73
2023/11/14 06:01:02;;;;;;;9.87;3.30;;;13.30;99.90;;;;;;5057372;28;21018;-73
2023/11/14 06:03:28;;;;;;;7.43;2.73;;;13.30;99.90;;;;;;5055638;28;20213;-73
2023/11/14 06:05:54;;;;;;;9.10;2.80;;;13.30;99.90;;;;;;5063092;28;20467;-72
2023/11/14 06:08:19;;;;;;;9.37;3.20;;;13.20;99.90;;;;;;5060567;28;20437;-72
2023/11/14 06:10:45;;;;;;;10.27;3.43;;;13.30;99.90;;;;;;5065990;28;20653;-74
2023/11/14 06:13:11;;;;;;;6.60;2.50;;;13.30;99.90;;;;;;5064536;28;20199;-73
2023/11/14 06:15:36;;;;;;;9.40;2.87;;;13.40;99.90;;;;;;5061585;28;20794;-73
2023/11/14 06:18:02;;;;;;;7.57;2.53;;;13.30;99.90;;;;;;5061532;28;20262;-73
2023/11/14 06:20:29;;;;;;;6.33;2.73;;;13.30;99.90;;;;;;5062239;28;20579;-73
2023/11/14 06:22:55;;;;;;;5.67;2.53;;;13.30;99.90;;;;;;5060426;28;20441;-73
2023/11/14 06:25:21;;;;;;;10.40;3.20;;;13.20;99.90;;;;;;5056435;28;20893;-73
2023/11/14 06:27:47;;;;;;;6.23;2.47;;;13.20;99.90;;;;;;5058431;28;20420;-73
2023/11/14 06:30:12;;;;;;;7.57;3.10;;;13.20;99.90;;;;;;5063817;28;20183;-72
2023/11/14 06:32:38;;;;;;;3.00;1.90;;;13.20;99.90;;;;;;5059647;28;20627;-72
2023/11/14 06:35:05;;;;;;;7.73;2.30;;;13.30;99.90;;;;;;5058458;28;20202;-73
2023/11/14 06:37:31;;;;;;;3.80;1.83;;;13.30;99.90;;;;;;5056041;28;20970;-72
2023/11/14 06:39:56;;;;;;;9.37;2.70;;;13.30;99.90;;;;;;5059877;28;20989;-73
2023/11/14 06:42:25;;;;;;;8.33;3.07;;;13.30;99.90;;;;;;5062795;28;20429;-72
2023/11/14 06:44:51;;;;;;;8.57;2.43;;;13.30;99.90;;;;;;5055290;28;20185;-72
2023/11/14 06:47:16;;;;;;;8.87;3.67;;;13.30;99.90;;;;;;5054216;28;20621;-72
2023/11/14 06:49:43;;;;;;;4.53;2.07;;;13.40;99.90;;;;;;5058463;28;20961;-73
2023/11/14 06:52:10;;;;;;;4.77;2.23;;;13.40;99.90;;;;;;5054435;28;20240;-72
2023/11/14 06:54:36;;;;;;;10.00;2.17;;;13.40;99.90;;;;;;5052533;28;20429;-72
2023/11/14 06:57:02;;;;;;;5.13;2.50;;;13.40;99.90;;;;;;5055828;28;20523;-72
2023/11/14 06:59:30;;;;;;;7.53;1.90;;;13.40;99.90;;;;;;5057953;28;20465;-72
2023/11/14 07:01:56;;;;;;;7.30;2.73;;;13.40;99.90;;;;;;5050373;28;20648;-72
2023/11/14 07:04:21;;;;;;;5.80;2.07;;;13.30;99.90;;;;;;5057887;28;20453;-73
2023/11/14 07:06:47;;;;;;;8.60;2.20;;;13.30;99.90;;;;;;5059961;28;20681;-72
2023/11/14 07:09:15;;;;;;;5.50;2.57;;;13.30;99.90;;;;;;5060422;28;20218;-72
2023/11/14 07:11:41;;;;;;;4.20;1.97;;;13.30;99.90;;;;;;5059789;28;20176;-71
2023/11/14 07:14:08;;;;;;;6.40;3.17;;;13.30;99.90;;;;;;5056040;28;20885;-73
2023/11/14 07:16:33;;;;;;;6.67;2.60;;;13.30;99.90;;;;;;5055351;28;20468;-72
2023/11/14 07:18:59;;;;;;;8.53;2.67;;;13.30;99.90;;;;;;5057247;28;20543;-72
2023/11/14 07:21:24;;;;;;;4.60;2.10;;;13.30;99.90;;;;;;5059378;28;20702;-73
2023/11/14 07:23:50;;;;;;;7.30;2.17;;;13.30;99.90;;;;;;5058220;28;20289;-73
2023/11/14 07:26:15;;;;;;;9.00;2.47;;;13.40;99.90;;;;;;5058849;28;20183;-73
2023/11/14 07:28:41;;;;;;;6.90;2.00;;;13.30;99.90;;;;;;5060538;28;20270;-72
2023/11/14 07:31:07;;;;;;;8.07;2.20;;;13.40;99.90;;;;;;5058608;28;20191;-72
2023/11/14 07:33:32;;;;;;;7.33;1.73;;;13.30;99.90;;;;;;5060622;28;20805;-72
2023/11/14 07:35:58;;;;;;;6.70;1.87;;;13.30;99.90;;;;;;5062759;28;20211;-72
2023/11/14 07:38:24;;;;;;;4.60;1.90;;;13.30;99.90;;;;;;5057605;28;20201;-72
2023/11/14 07:40:50;;;;;;;7.00;2.20;;;13.40;99.90;;;;;;5063020;28;20417;-71
2023/11/14 07:43:17;;;;;;;7.30;1.80;;;13.40;99.90;;;;;;5060702;28;20200;-71
2023/11/14 07:45:43;;;;;;;7.33;1.80;;;13.40;99.90;;;;;;5059035;28;20266;-71
2023/11/14 07:48:08;;;;;;;6.80;2.10;;;13.50;99.90;;;;;;5060488;28;20544;-71
2023/11/14 07:50:34;;;;;;;5.53;2.43;;;13.50;99.90;;;;;;5062253;28;20184;-72
2023/11/14 07:52:59;;;;;;;4.40;2.00;;;13.60;99.90;;;;;;5062925;28;20301;-72
2023/11/14 07:55:25;;;;;;;5.40;1.80;;;13.60;99.90;;;;;;5058768;28;20271;-71
2023/11/14 07:57:50;;;;;;;6.10;1.77;;;13.60;99.90;;;;;;5049390;28;20183;-71
2023/11/14 08:00:17;;;;;;;4.60;1.97;;;13.70;99.90;;;;;;5054286;28;20744;-71
2023/11/14 08:02:43;;;;;;;3.23;1.70;;;13.60;99.90;;;;;;5049155;28;20195;-71
2023/11/14 08:05:09;;;;;;;3.90;1.80;;;13.60;99.90;;;;;;5050631;28;20430;-71
2023/11/14 08:07:35;;;;;;;5.20;1.70;;;13.60;99.90;;;;;;5051269;28;20190;-71
2023/11/14 08:10:01;;;;;;;5.80;1.70;;;13.70;99.90;;;;;;5050493;28;20217;-71
2023/11/14 08:12:27;;;;;;;3.47;2.10;;;13.70;99.90;;;;;;5056500;28;20213;-70
2023/11/14 08:14:53;;;;;;;4.60;2.20;;;13.60;99.90;;;;;;5053464;28;20511;-71
2023/11/14 08:17:18;;;;;;;3.17;1.60;;;13.50;99.90;;;;;;5054745;28;20453;-70
2023/11/14 08:19:47;;;;;;;7.57;1.87;;;13.50;99.90;;;;;;5056167;28;20458;-69
2023/11/14 08:22:12;;;;;;;3.43;1.73;;;13.50;99.90;;;;;;5060127;28;20648;-70
2023/11/14 08:24:38;;;;;;;4.63;1.70;;;13.50;99.90;;;;;;5054794;28;20440;-71
2023/11/14 08:27:05;;;;;;;7.70;2.00;;;13.60;99.90;;;;;;5053429;28;20233;-70
2023/11/14 08:29:31;;;;;;;5.40;1.80;;;13.70;99.90;;;;;;5059278;28;20182;-71
2023/11/14 08:31:58;;;;;;;3.40;1.57;;;13.70;99.90;;;;;;5056026;28;20476;-71
2023/11/14 08:34:23;;;;;;;3.20;1.73;;;13.70;99.90;;;;;;5055835;28;20981;-70
2023/11/14 08:36:49;;;;;;;8.43;2.00;;;13.80;99.90;;;;;;5047462;28;20466;-70
2023/11/14 08:39:15;;;;;;;5.53;1.77;;;13.80;99.90;;;;;;5054970;28;20195;-71
2023/11/14 08:41:40;;;;;;;3.30;1.50;;;13.80;99.90;;;;;;5055809;28;20225;-69
2023/11/14 08:44:07;;;;;;;9.93;2.20;;;13.80;99.90;;;;;;5062945;28;20578;-71
2023/11/14 08:46:33;;;;;;;6.83;1.50;;;13.80;99.90;;;;;;5059656;28;20241;-70
2023/11/14 08:48:59;;;;;;;9.73;2.20;;;13.80;99.90;;;;;;5057069;28;20413;-71
2023/11/14 08:51:25;;;;;;;7.50;2.07;;;13.80;99.90;;;;;;5056688;28;20832;-71
2023/11/14 08:53:51;;;;;;;5.40;1.80;;;13.70;99.90;;;;;;5051382;28;20212;-71
2023/11/14 08:56:17;;;;;;;6.50;2.10;;;13.80;99.90;;;;;;5055451;28;20471;-71
2023/11/14 08:58:42;;;;;;;3.90;1.50;;;13.80;99.90;;;;;;5059018;28;20207;-70
2023/11/14 09:01:10;;;;;;;6.27;2.00;;;13.80;99.90;;;;;;5052325;28;20187;-70
2023/11/14 09:03:35;;;;;;;3.40;2.00;;;13.80;99.90;;;;;;5047053;28;20199;-70
2023/11/14 09:06:01;;;;;;;3.87;1.70;;;13.80;99.90;;;;;;5055648;28;20416;-70
2023/11/14 09:08:27;;;;;;;3.00;1.60;;;13.90;99.90;;;;;;5058879;28;20175;-71
2023/11/14 09:10:52;;;;;;;5.00;2.37;;;13.90;99.90;;;;;;5056178;28;20593;-70
2023/11/14 09:13:18;;;;;;;6.90;1.93;;;13.90;99.90;;;;;;5056327;28;20203;-69
2023/11/14 09:15:43;;;;;;;4.40;1.60;;;13.90;99.90;;;;;;5054432;28;20783;-69
2023/11/14 09:18:10;;;;;;;4.60;1.60;;;14.00;99.90;;;;;;5056056;28;20186;-70
2023/11/14 09:20:36;;;;;;;5.87;1.80;;;14.00;99.90;;;;;;5050710;28;20296;-70
2023/11/14 09:23:02;;;;;;;5.13;1.77;;;14.00;99.90;;;;;;5053794;28;20449;-69
2023/11/14 09:25:28;;;;;;;4.57;2.07;;;14.00;99.90;;;;;;5054601;28;20262;-70
2023/11/14 09:27:53;;;;;;;5.63;1.80;;;14.10;99.90;;;;;;5059645;28;20528;-70
2023/11/14 09:30:19;;;;;;;4.60;2.27;;;14.10;99.90;;;;;;5058019;28;20209;-70
2023/11/14 09:32:46;;;;;;;3.93;2.10;;;14.10;99.90;;;;;;5053163;28;20202;-70
2023/11/14 09:35:11;;;;;;;4.87;2.10;;;14.20;99.90;;;;;;5058607;28;20175;-70
2023/11/14 09:37:37;;;;;;;2.73;1.80;;;14.20;99.90;;;;;;5055366;28;20425;-71
2023/11/14 09:40:06;;;;;;;4.10;2.13;;;14.30;99.90;;;;;;5057552;28;20210;-70
2023/11/14 09:42:32;;;;;;;3.77;1.83;;;14.20;99.90;;;;;;5057410;28;20441;-70
2023/11/14 09:44:58;;;;;;;3.73;1.90;;;14.20;99.90;;;;;;5061978;28;21092;-70
2023/11/14 09:47:25;;;;;;;4.03;2.37;;;14.10;99.90;;;;;;5058180;28;20430;-69
2023/11/14 09:49:51;;;;;;;4.10;1.90;;;14.10;99.90;;;;;;5058283;28;20444;-71
2023/11/14 09:52:18;;;;;;;8.97;1.93;;;14.00;99.90;;;;;;5059316;28;20792;-70
2023/11/14 09:54:44;;;;;;;5.03;1.60;;;14.00;99.90;;;;;;5061165;28;20462;-72
2023/11/14 09:57:12;;;;;;;7.73;1.80;;;14.00;99.90;;;;;;5058123;28;20426;-71
2023/11/14 09:59:41;;;;;;;9.57;2.37;;;14.10;99.90;;;;;;5060474;28;20257;-71
2023/11/14 10:02:07;;;;;;;3.30;2.97;;;14.10;99.90;;;;;;5050267;28;20434;-71
2023/11/14 10:04:33;;;;;;;2.80;1.80;;;14.10;99.90;;;;;;5058676;28;20413;-71
2023/11/14 10:06:59;;;;;;;5.47;2.03;;;14.10;99.90;;;;;;5056710;28;20191;-72
2023/11/14 10:09:26;;;;;;;4.83;1.83;;;14.10;99.90;;;;;;5055306;28;20202;-71
2023/11/14 10:11:53;;;;;;;7.43;2.10;;;14.10;99.90;;;;;;5060470;28;20980;-71
2023/11/14 10:14:19;;;;;;;4.13;1.93;;;14.20;99.90;;;;;;5062338;28;20872;-72
2023/11/14 10:16:45;;;;;;;4.57;1.50;;;14.10;99.90;;;;;;5055603;28;20547;-72
2023/11/14 10:19:12;;;;;;;6.23;2.10;;;14.10;99.90;;;;;;5056173;28;20877;-72
2023/11/14 10:21:38;;;;;;;7.03;1.93;;;14.10;99.90;;;;;;5056992;28;20183;-72
2023/11/14 10:24:15;;;;;;;6.60;2.00;;;14.20;99.90;;;;;;5057731;28;20880;-71
2023/11/14 10:26:53;;;;;;;6.37;2.07;;;14.10;99.90;;;;;;5059751;28;20422;-70
2023/11/14 10:29:23;;;;;;;4.00;1.60;;;14.10;99.90;;;;;;5058395;28;20432;-71
2023/11/14 10:31:50;;;;;;;3.60;1.80;;;14.10;99.90;;;;;;5058532;28;21023;-71
2023/11/14 10:34:27;;;;;;;6.03;2.30;;;14.20;99.90;;;;;;5056986;28;20836;-70
2023/11/14 10:36:56;;;;;;;7.87;2.10;;;14.30;99.90;;;;;;5054173;28;20794;-70
2023/11/14 10:39:23;;;;;;;8.10;2.43;;;14.20;99.90;;;;;;5055827;28;20826;-71
2023/11/14 10:41:50;;;;;;;3.87;2.37;;;14.20;99.90;;;;;;5062913;28;20448;-72
2023/11/14 10:44:16;;;;;;;2.50;1.67;;;14.20;99.90;;;;;;5061223;28;20475;-71
2023/11/14 10:46:54;;;;;;;5.60;3.33;;;14.20;99.90;;;;;;5055695;28;20998;-70
2023/11/14 10:49:23;;;;;;;3.90;2.10;;;14.20;99.90;;;;;;5057680;28;20420;-71
2023/11/14 10:51:50;;;;;;;5.30;1.80;;;14.30;99.90;;;;;;5056484;28;20436;-71
2023/11/14 10:54:17;;;;;;;3.93;1.60;;;14.30;99.90;;;;;;5054884;28;20482;-74
2023/11/14 10:56:44;;;;;;;4.10;1.90;;;14.30;99.90;;;;;;5059642;28;20441;-73
2023/11/14 10:59:15;;;;;;;3.00;1.97;;;14.20;99.90;;;;;;5059580;28;20548;-72
2023/11/14 11:01:44;;;;;;;5.20;1.80;;;14.30;99.90;;;;;;5049073;28;21251;-72
2023/11/14 11:04:12;;;;;;;4.20;2.33;;;14.30;99.90;;;;;;5052293;28;20445;-71
2023/11/14 11:06:38;;;;;;;4.00;2.03;;;14.30;99.90;;;;;;5060332;28;20410;-71
2023/11/14 11:09:10;;;;;;;5.97;1.70;;;14.30;99.90;;;;;;5059996;28;20437;-70
2023/11/14 11:11:41;;;;;;;3.13;1.70;;;14.40;99.90;;;;;;5062021;28;20428;-72
2023/11/14 11:14:11;;;;;;;5.13;1.93;;;14.40;99.90;;;;;;5058392;28;20457;-69
2023/11/14 11:16:44;;;;;;;2.90;1.60;;;14.50;99.90;;;;;;5058176;28;20413;-70
2023/11/14 11:19:17;;;;;;;7.40;1.73;;;14.60;99.90;;;;;;5058133;28;20508;-71
2023/11/14 11:22:06;;;;;;;4.33;2.03;;;14.70;99.90;;;;;;5058288;28;20445;-71
2023/11/14 11:24:32;;;;;;;4.53;1.90;;;14.70;99.90;;;;;;5059405;28;20449;-71
2023/11/14 11:27:10;;;;;;;7.43;1.97;;;14.80;99.90;;;;;;5058124;28;20858;-71
2023/11/14 11:29:54;;;;;;;6.53;3.10;;;14.80;99.90;;;;;;5057813;28;20426;-70
2023/11/14 11:32:32;;;;;;;3.90;1.93;;;14.90;99.90;;;;;;5048734;28;20418;-71
2023/11/14 11:35:16;;;;;;;5.30;2.10;;;14.90;99.90;;;;;;5051982;28;20464;-71
2023/11/14 11:37:55;;;;;;;6.37;2.30;;;15.00;99.90;;;;;;5055961;28;20418;-72
2023/11/14 11:40:25;;;;;;;6.60;1.70;;;15.10;99.90;;;;;;5061526;28;20552;-72
2023/11/14 11:42:53;;;;;;;6.37;2.07;;;15.20;99.90;;;;;;5055799;28;20426;-71
2023/11/14 11:45:30;;;;;;;5.73;2.10;;;15.20;99.90;;;;;;5056203;28;20907;-71
2023/11/14 11:47:59;;;;;;;4.57;1.80;;;15.10;99.90;;;;;;5059825;28;20793;-71
2023/11/14 11:50:29;;;;;;;5.60;1.80;;;15.10;99.90;;;;;;5052811;28;20425;-71
2023/11/14 11:53:39;;;;;;;5.80;2.03;;;15.10;99.90;;;;;;5056029;28;20572;-70
2023/11/14 11:56:05;;;;;;;9.27;3.33;;;15.20;99.90;;;;;;5033148;28;20834;-73
2023/11/14 11:58:45;;;;;;;13.30;2.47;;;15.30;99.90;;;;;;5050139;28;20437;-73
2023/11/14 12:01:11;;;;;;;3.90;2.10;;;15.60;99.90;;;;;;5048439;28;20409;-72
2023/11/14 12:03:37;;;;;;;5.77;2.20;;;16.00;99.90;;;;;;5048460;28;21027;-72
2023/11/14 12:06:09;;;;;;;3.77;1.73;;;16.40;99.90;;;;;;5057942;28;20269;-72
2023/11/14 12:08:35;;;;;;;4.00;2.10;;;16.70;99.90;;;;;;5052956;28;20922;-73
2023/11/14 12:11:01;;;;;;;3.47;1.97;;;17.30;99.90;;;;;;5055918;28;20413;-72
2023/11/14 12:13:28;;;;;;;4.27;1.87;;;17.80;99.90;;;;;;5059141;28;20444;-72
2023/11/14 12:15:54;;;;;;;4.83;2.20;;;18.10;99.90;;;;;;5055413;28;20453;-72
2023/11/14 12:18:19;;;;;;;4.87;2.00;;;17.60;99.90;;;;;;5053850;28;20907;-72
2023/11/14 12:20:45;;;;;;;8.60;2.10;;;17.20;99.90;;;;;;5055097;28;20210;-72
2023/11/14 12:23:11;;;;;;;4.43;2.47;;;16.80;99.90;;;;;;5053227;28;20203;-73
2023/11/14 12:25:37;;;;;;;5.97;2.10;;;16.70;99.90;;;;;;5052768;28;20434;-72
2023/11/14 12:28:03;;;;;;;4.20;2.40;;;16.60;99.90;;;;;;5051823;28;20267;-71
2023/11/14 12:30:29;;;;;;;5.70;2.10;;;16.40;99.90;;;;;;5054270;28;20233;-71
2023/11/14 12:33:21;;;;;;;5.20;2.23;;;16.20;99.90;;;;;;5061551;28;20446;-72
2023/11/14 12:35:57;;;;;;;5.47;2.00;;;16.10;99.90;;;;;;5046825;28;20449;-72
2023/11/14 12:38:49;;;;;;;3.40;2.17;;;16.00;99.90;;;;;;5057217;28;20408;-73
2023/11/14 12:41:18;;;;;;;2.70;2.20;;;15.90;99.90;;;;;;5052281;28;20455;-73
2023/11/14 12:43:44;;;;;;;2.67;1.80;;;15.90;99.90;;;;;;5057234;28;20923;-72
2023/11/14 12:46:10;;;;;;;8.87;2.30;;;15.80;99.90;;;;;;5053954;28;20428;-70